Terminal Aerodrome Forecast
Issued by NWS

Home | Current Version | Previous Version | Graphics & Text | Print | Product List | Glossary On
Versions: 1 2 3 4 5 6 7 8 9 10 11 12 13 14 15 16 17 18 19 20 21 22 23
000
FTUS42 KMHX 241204 AAA
TAFPGV
TAF AMD
KPGV 241204Z 2412/2512 25005KT P6SM BKN006 OVC013
      TEMPO 2412/2413 4SM BR OVC002
     FM241400 24005KT P6SM OVC015
     FM241700 19005KT P6SM VCSH OVC025
      TEMPO 2417/2420 4SM TS OVC015CB
     FM242000 18010KT 6SM -TSRA OVC025CB
     FM250000 18010KT 6SM -SHRA OVC025
     FM250200 17010KT 6SM -SHRA OVC015
     FM250600 19010KT P6SM OVC015
      AMD LTD TO CLD VIS AND WIND=

USA.gov is the U.S. government's official web portal to all federal, state and local government web resources and services.